sensor_id;sensor_type;location;lat;lon;timestamp;pressure;altitude;pressure_sealevel;temperature;humidity
6435;BME280;3250;42.694;23.278;2022-08-01T00:01:37;94759.28;;;19.76;66.12
6435;BME280;3250;42.694;23.278;2022-08-01T00:04:03;94755.00;;;19.65;66.96
6435;BME280;3250;42.694;23.278;2022-08-01T00:06:29;94762.25;;;19.59;66.94
6435;BME280;3250;42.694;23.278;2022-08-01T00:08:54;94759.31;;;19.51;67.46
6435;BME280;3250;42.694;23.278;2022-08-01T00:11:21;94760.88;;;19.42;67.38
6435;BME280;3250;42.694;23.278;2022-08-01T00:13:46;94752.34;;;19.40;67.49
6435;BME280;3250;42.694;23.278;2022-08-01T00:16:12;94763.03;;;19.60;67.26
6435;BME280;3250;42.694;23.278;2022-08-01T00:18:37;94762.78;;;19.72;67.28
6435;BME280;3250;42.694;23.278;2022-08-01T00:21:03;94762.75;;;19.77;66.73
6435;BME280;3250;42.694;23.278;2022-08-01T00:23:29;94765.13;;;19.88;66.34
6435;BME280;3250;42.694;23.278;2022-08-01T00:25:54;94769.63;;;19.98;66.60
6435;BME280;3250;42.694;23.278;2022-08-01T00:28:20;94774.44;;;20.01;66.54
6435;BME280;3250;42.694;23.278;2022-08-01T00:30:45;94777.94;;;19.96;66.90
6435;BME280;3250;42.694;23.278;2022-08-01T00:33:11;94771.56;;;19.87;66.92
6435;BME280;3250;42.694;23.278;2022-08-01T00:35:36;94772.09;;;19.84;67.33
6435;BME280;3250;42.694;23.278;2022-08-01T00:38:01;94733.16;;;19.53;67.29
6435;BME280;3250;42.694;23.278;2022-08-01T00:40:27;94775.31;;;19.71;68.10
6435;BME280;3250;42.694;23.278;2022-08-01T00:42:53;94776.13;;;19.72;68.43
6435;BME280;3250;42.694;23.278;2022-08-01T00:45:18;94777.47;;;19.69;68.86
6435;BME280;3250;42.694;23.278;2022-08-01T00:47:44;94765.69;;;19.65;68.85
6435;BME280;3250;42.694;23.278;2022-08-01T00:50:10;94755.03;;;19.50;69.31
6435;BME280;3250;42.694;23.278;2022-08-01T00:52:36;94770.53;;;19.53;69.77
6435;BME280;3250;42.694;23.278;2022-08-01T00:55:02;94767.84;;;19.48;69.72
6435;BME280;3250;42.694;23.278;2022-08-01T00:57:28;94768.63;;;19.43;69.94
6435;BME280;3250;42.694;23.278;2022-08-01T00:59:53;94747.53;;;19.32;70.15
6435;BME280;3250;42.694;23.278;2022-08-01T01:02:18;94755.03;;;19.35;70.55
6435;BME280;3250;42.694;23.278;2022-08-01T01:04:44;94746.19;;;19.29;70.79
6435;BME280;3250;42.694;23.278;2022-08-01T01:07:24;94744.59;;;19.23;71.23
6435;BME280;3250;42.694;23.278;2022-08-01T01:10:08;94745.94;;;19.15;71.56
6435;BME280;3250;42.694;23.278;2022-08-01T01:15:08;94727.00;;;18.92;71.99
6435;BME280;3250;42.694;23.278;2022-08-01T01:20:13;94748.06;;;18.83;72.88
6435;BME280;3250;42.694;23.278;2022-08-01T01:22:59;94744.84;;;18.76;72.79
6435;BME280;3250;42.694;23.278;2022-08-01T01:28:26;94737.06;;;18.69;72.45
6435;BME280;3250;42.694;23.278;2022-08-01T01:30:55;94718.91;;;18.56;72.13
6435;BME280;3250;42.694;23.278;2022-08-01T01:33:23;94732.03;;;18.68;71.85
6435;BME280;3250;42.694;23.278;2022-08-01T01:35:52;94728.81;;;18.66;71.64
6435;BME280;3250;42.694;23.278;2022-08-01T01:38:24;94727.75;;;18.67;71.39
6435;BME280;3250;42.694;23.278;2022-08-01T01:40:52;94722.94;;;18.64;71.61
6435;BME280;3250;42.694;23.278;2022-08-01T01:43:18;94717.06;;;18.62;71.63
6435;BME280;3250;42.694;23.278;2022-08-01T01:45:47;94708.50;;;18.55;71.95
6435;BME280;3250;42.694;23.278;2022-08-01T01:48:15;94713.81;;;18.55;71.72
6435;BME280;3250;42.694;23.278;2022-08-01T01:50:46;94713.53;;;18.51;71.51
6435;BME280;3250;42.694;23.278;2022-08-01T01:53:14;94709.00;;;18.46;71.98
6435;BME280;3250;42.694;23.278;2022-08-01T01:55:41;94711.13;;;18.44;72.48
6435;BME280;3250;42.694;23.278;2022-08-01T01:58:12;94709.56;;;18.48;72.40
6435;BME280;3250;42.694;23.278;2022-08-01T02:00:39;94712.75;;;18.45;72.03
6435;BME280;3250;42.694;23.278;2022-08-01T02:03:09;94714.06;;;18.43;72.23
6435;BME280;3250;42.694;23.278;2022-08-01T02:05:36;94702.59;;;18.37;71.71
6435;BME280;3250;42.694;23.278;2022-08-01T02:08:04;94702.34;;;18.39;72.01
6435;BME280;3250;42.694;23.278;2022-08-01T02:10:31;94700.72;;;18.43;71.86
6435;BME280;3250;42.694;23.278;2022-08-01T02:12:59;94702.34;;;18.39;71.50
6435;BME280;3250;42.694;23.278;2022-08-01T02:15:27;94689.78;;;18.34;71.35
6435;BME280;3250;42.694;23.278;2022-08-01T02:17:56;94674.84;;;18.23;71.55
6435;BME280;3250;42.694;23.278;2022-08-01T02:20:22;94693.78;;;18.37;70.50
6435;BME280;3250;42.694;23.278;2022-08-01T02:22:53;94692.72;;;18.38;70.90
6435;BME280;3250;42.694;23.278;2022-08-01T02:25:32;94695.94;;;18.40;71.04
6435;BME280;3250;42.694;23.278;2022-08-01T02:28:05;94701.53;;;18.38;70.56
6435;BME280;3250;42.694;23.278;2022-08-01T02:30:36;94689.53;;;18.36;70.04
6435;BME280;3250;42.694;23.278;2022-08-01T02:33:08;94701.78;;;18.37;69.59
6435;BME280;3250;42.694;23.278;2022-08-01T02:35:38;94702.31;;;18.34;69.57
6435;BME280;3250;42.694;23.278;2022-08-01T02:38:09;94686.81;;;18.21;69.74
6435;BME280;3250;42.694;23.278;2022-08-01T02:40:39;94706.56;;;18.30;68.84
6435;BME280;3250;42.694;23.278;2022-08-01T02:43:09;94704.72;;;18.30;69.28
6435;BME280;3250;42.694;23.278;2022-08-01T02:45:39;94702.81;;;18.26;69.02
6435;BME280;3250;42.694;23.278;2022-08-01T02:48:12;94695.91;;;18.25;68.68
6435;BME280;3250;42.694;23.278;2022-08-01T02:50:42;94691.09;;;18.22;69.59
6435;BME280;3250;42.694;23.278;2022-08-01T02:53:08;94662.00;;;18.05;69.68
6435;BME280;3250;42.694;23.278;2022-08-01T02:55:38;94694.81;;;18.26;69.82
6435;BME280;3250;42.694;23.278;2022-08-01T02:58:04;94698.56;;;18.25;69.23
6435;BME280;3250;42.694;23.278;2022-08-01T03:00:33;94672.38;;;18.01;68.85
6435;BME280;3250;42.694;23.278;2022-08-01T03:02:59;94667.28;;;17.95;69.33
6435;BME280;3250;42.694;23.278;2022-08-01T03:05:27;94695.31;;;18.13;69.39
6435;BME280;3250;42.694;23.278;2022-08-01T03:07:54;94696.13;;;18.13;69.87
6435;BME280;3250;42.694;23.278;2022-08-01T03:10:20;94691.84;;;18.12;70.06
6435;BME280;3250;42.694;23.278;2022-08-01T03:12:48;94695.28;;;18.07;69.94
6435;BME280;3250;42.694;23.278;2022-08-01T03:15:15;94696.09;;;18.03;70.05
6435;BME280;3250;42.694;23.278;2022-08-01T03:17:45;94699.00;;;18.01;70.19
6435;BME280;3250;42.694;23.278;2022-08-01T03:20:14;94706.69;;;17.93;69.80
6435;BME280;3250;42.694;23.278;2022-08-01T03:22:42;94706.69;;;17.93;70.45
6435;BME280;3250;42.694;23.278;2022-08-01T03:25:09;94681.31;;;17.75;70.70
6435;BME280;3250;42.694;23.278;2022-08-01T03:27:36;94678.38;;;17.71;70.79
6435;BME280;3250;42.694;23.278;2022-08-01T03:30:03;94706.66;;;17.83;70.91
6435;BME280;3250;42.694;23.278;2022-08-01T03:32:30;94691.19;;;17.80;71.07
6435;BME280;3250;42.694;23.278;2022-08-01T03:34:56;94703.47;;;17.91;71.79
6435;BME280;3250;42.694;23.278;2022-08-01T03:37:34;94684.53;;;17.82;71.30
6435;BME280;3250;42.694;23.278;2022-08-01T03:40:12;94709.91;;;17.90;71.54
6435;BME280;3250;42.694;23.278;2022-08-01T03:42:43;94706.38;;;17.79;70.91
6435;BME280;3250;42.694;23.278;2022-08-01T03:45:11;94701.78;;;17.69;71.09
6435;BME280;3250;42.694;23.278;2022-08-01T03:47:43;94696.22;;;17.71;71.43
6435;BME280;3250;42.694;23.278;2022-08-01T03:50:10;94678.59;;;17.65;71.67
6435;BME280;3250;42.694;23.278;2022-08-01T03:52:38;94684.53;;;17.82;71.78
6435;BME280;3250;42.694;23.278;2022-08-01T03:55:06;94696.59;;;17.95;72.17
6435;BME280;3250;42.694;23.278;2022-08-01T03:57:33;94695.84;;;18.04;72.38
6435;BME280;3250;42.694;23.278;2022-08-01T04:00:00;94696.69;;;18.15;72.47
6435;BME280;3250;42.694;23.278;2022-08-01T04:02:29;94704.69;;;18.25;71.95
6435;BME280;3250;42.694;23.278;2022-08-01T04:04:55;94700.72;;;18.33;71.74
6435;BME280;3250;42.694;23.278;2022-08-01T04:07:32;94703.13;;;18.44;70.83
6435;BME280;3250;42.694;23.278;2022-08-01T04:09:57;94658.31;;;18.26;69.31
6435;BME280;3250;42.694;23.278;2022-08-01T04:12:23;94700.81;;;18.63;68.74
6435;BME280;3250;42.694;23.278;2022-08-01T04:14:49;94676.28;;;18.66;68.70
6435;BME280;3250;42.694;23.278;2022-08-01T04:17:16;94703.50;;;19.04;68.40
6435;BME280;3250;42.694;23.278;2022-08-01T04:19:42;94686.19;;;19.01;67.49
6435;BME280;3250;42.694;23.278;2022-08-01T04:22:09;94703.78;;;19.28;67.73
6435;BME280;3250;42.694;23.278;2022-08-01T04:24:36;94677.59;;;19.30;67.41
6435;BME280;3250;42.694;23.278;2022-08-01T04:27:05;94723.50;;;19.57;66.71
6435;BME280;3250;42.694;23.278;2022-08-01T04:29:32;94693.34;;;19.56;67.02
6435;BME280;3250;42.694;23.278;2022-08-01T04:31:59;94713.84;;;19.86;66.37
6435;BME280;3250;42.694;23.278;2022-08-01T04:34:28;94705.72;;;20.07;65.61
6435;BME280;3250;42.694;23.278;2022-08-01T04:36:55;94717.69;;;20.34;65.33
6435;BME280;3250;42.694;23.278;2022-08-01T04:39:23;94694.63;;;20.44;63.08
6435;BME280;3250;42.694;23.278;2022-08-01T04:41:54;94715.88;;;20.74;63.02
6435;BME280;3250;42.694;23.278;2022-08-01T04:44:23;94726.56;;;21.13;63.21
6435;BME280;3250;42.694;23.278;2022-08-01T04:46:50;94728.16;;;21.48;62.08
6435;BME280;3250;42.694;23.278;2022-08-01T04:49:20;94723.97;;;21.95;60.86
6435;BME280;3250;42.694;23.278;2022-08-01T04:51:53;94726.88;;;22.46;59.54
6435;BME280;3250;42.694;23.278;2022-08-01T04:54:24;94725.09;;;22.98;58.15
6435;BME280;3250;42.694;23.278;2022-08-01T04:56:50;94706.69;;;23.23;56.59
6435;BME280;3250;42.694;23.278;2022-08-01T04:59:15;94726.97;;;23.81;55.87
6435;BME280;3250;42.694;23.278;2022-08-01T05:01:59;94731.22;;;24.28;54.05
6435;BME280;3250;42.694;23.278;2022-08-01T05:04:25;94726.00;;;24.72;53.08
6435;BME280;3250;42.694;23.278;2022-08-01T05:06:50;94717.56;;;25.24;51.97
6435;BME280;3250;42.694;23.278;2022-08-01T05:09:16;94721.09;;;25.77;50.12
6435;BME280;3250;42.694;23.278;2022-08-01T05:11:41;94723.44;;;26.32;49.14
6435;BME280;3250;42.694;23.278;2022-08-01T05:14:07;94713.22;;;26.86;47.19
6435;BME280;3250;42.694;23.278;2022-08-01T05:16:32;94707.34;;;27.44;46.27
6435;BME280;3250;42.694;23.278;2022-08-01T05:18:57;94722.63;;;28.12;44.50
6435;BME280;3250;42.694;23.278;2022-08-01T05:21:23;94720.88;;;28.84;43.02
6435;BME280;3250;42.694;23.278;2022-08-01T05:23:48;94730.75;;;29.51;41.64
6435;BME280;3250;42.694;23.278;2022-08-01T05:26:14;94720.78;;;30.09;40.94
6435;BME280;3250;42.694;23.278;2022-08-01T05:28:39;94706.91;;;30.59;40.06
6435;BME280;3250;42.694;23.278;2022-08-01T05:31:05;94721.28;;;31.24;38.46
6435;BME280;3250;42.694;23.278;2022-08-01T05:33:31;94724.59;;;31.85;37.12
6435;BME280;3250;42.694;23.278;2022-08-01T05:35:56;94715.44;;;32.37;36.10
6435;BME280;3250;42.694;23.278;2022-08-01T05:38:22;94722.16;;;32.90;35.17
6435;BME280;3250;42.694;23.278;2022-08-01T05:40:47;94728.06;;;33.27;33.63
6435;BME280;3250;42.694;23.278;2022-08-01T05:43:13;94725.75;;;33.67;34.13
6435;BME280;3250;42.694;23.278;2022-08-01T05:45:38;94728.84;;;34.04;32.82
6435;BME280;3250;42.694;23.278;2022-08-01T05:48:04;94731.00;;;34.37;31.46
6435;BME280;3250;42.694;23.278;2022-08-01T05:50:29;94728.34;;;34.41;31.30
6435;BME280;3250;42.694;23.278;2022-08-01T05:52:54;94720.75;;;34.31;31.28
6435;BME280;3250;42.694;23.278;2022-08-01T05:55:20;94727.94;;;34.42;30.51
6435;BME280;3250;42.694;23.278;2022-08-01T05:57:45;94724.06;;;34.66;29.11
6435;BME280;3250;42.694;23.278;2022-08-01T06:00:11;94685.94;;;34.54;29.86
6435;BME280;3250;42.694;23.278;2022-08-01T06:02:41;94710.72;;;34.88;29.22
6435;BME280;3250;42.694;23.278;2022-08-01T06:05:09;94711.84;;;34.37;28.16
6435;BME280;3250;42.694;23.278;2022-08-01T06:07:35;94723.69;;;34.45;28.98
6435;BME280;3250;42.694;23.278;2022-08-01T06:10:00;94725.72;;;34.48;27.88
6435;BME280;3250;42.694;23.278;2022-08-01T06:12:25;94714.78;;;34.25;27.97
6435;BME280;3250;42.694;23.278;2022-08-01T06:14:51;94712.69;;;33.57;27.37
6435;BME280;3250;42.694;23.278;2022-08-01T06:17:16;94728.44;;;33.25;29.77
6435;BME280;3250;42.694;23.278;2022-08-01T06:19:42;94725.38;;;33.11;29.52
6435;BME280;3250;42.694;23.278;2022-08-01T06:22:07;94722.56;;;33.08;29.29
6435;BME280;3250;42.694;23.278;2022-08-01T06:24:33;94712.53;;;32.77;29.82
6435;BME280;3250;42.694;23.278;2022-08-01T06:26:58;94717.63;;;32.47;29.10
6435;BME280;3250;42.694;23.278;2022-08-01T06:29:23;94727.13;;;31.78;30.77
6435;BME280;3250;42.694;23.278;2022-08-01T06:31:49;94721.94;;;31.33;30.35
6435;BME280;3250;42.694;23.278;2022-08-01T06:34:15;94706.31;;;30.17;31.73
6435;BME280;3250;42.694;23.278;2022-08-01T06:36:40;94709.78;;;30.05;34.68
6435;BME280;3250;42.694;23.278;2022-08-01T06:39:06;94716.03;;;30.30;34.71
6435;BME280;3250;42.694;23.278;2022-08-01T06:41:31;94702.44;;;30.30;32.91
6435;BME280;3250;42.694;23.278;2022-08-01T06:43:57;94705.06;;;30.38;32.20
6435;BME280;3250;42.694;23.278;2022-08-01T06:46:22;94711.63;;;30.37;32.40
6435;BME280;3250;42.694;23.278;2022-08-01T06:48:48;94710.50;;;30.51;33.19
6435;BME280;3250;42.694;23.278;2022-08-01T06:51:13;94706.44;;;30.57;34.06
6435;BME280;3250;42.694;23.278;2022-08-01T06:53:41;94711.63;;;30.74;34.10
6435;BME280;3250;42.694;23.278;2022-08-01T06:56:07;94706.88;;;30.34;34.43
6435;BME280;3250;42.694;23.278;2022-08-01T06:58:34;94684.81;;;29.79;33.48
6435;BME280;3250;42.694;23.278;2022-08-01T07:01:00;94692.50;;;29.77;35.51
6435;BME280;3250;42.694;23.278;2022-08-01T07:03:26;94687.56;;;29.46;35.78
6435;BME280;3250;42.694;23.278;2022-08-01T07:05:52;94657.72;;;29.58;36.81
6435;BME280;3250;42.694;23.278;2022-08-01T07:08:18;94691.34;;;30.11;36.11
6435;BME280;3250;42.694;23.278;2022-08-01T07:10:43;94685.00;;;30.07;33.71
6435;BME280;3250;42.694;23.278;2022-08-01T07:13:09;94690.44;;;29.61;35.74
6435;BME280;3250;42.694;23.278;2022-08-01T07:15:34;94696.47;;;29.79;36.42
6435;BME280;3250;42.694;23.278;2022-08-01T07:17:59;94702.00;;;30.16;35.93
6435;BME280;3250;42.694;23.278;2022-08-01T07:20:29;94679.78;;;30.01;33.81
6435;BME280;3250;42.694;23.278;2022-08-01T07:22:54;94695.75;;;30.15;35.90
6435;BME280;3250;42.694;23.278;2022-08-01T07:25:19;94699.84;;;30.33;35.21
6435;BME280;3250;42.694;23.278;2022-08-01T07:27:45;94703.69;;;30.45;34.86
6435;BME280;3250;42.694;23.278;2022-08-01T07:30:11;94708.69;;;30.43;33.81
6435;BME280;3250;42.694;23.278;2022-08-01T07:32:37;94708.00;;;30.09;34.07
6435;BME280;3250;42.694;23.278;2022-08-01T07:35:03;94685.25;;;29.69;34.56
6435;BME280;3250;42.694;23.278;2022-08-01T07:37:29;94702.56;;;29.76;36.55
6435;BME280;3250;42.694;23.278;2022-08-01T07:39:54;94669.09;;;29.84;34.49
6435;BME280;3250;42.694;23.278;2022-08-01T07:42:19;94696.56;;;30.28;34.77
6435;BME280;3250;42.694;23.278;2022-08-01T07:44:45;94696.22;;;30.42;33.16
6435;BME280;3250;42.694;23.278;2022-08-01T07:47:10;94685.50;;;29.43;34.55
6435;BME280;3250;42.694;23.278;2022-08-01T07:49:36;94699.81;;;29.31;36.86
6435;BME280;3250;42.694;23.278;2022-08-01T07:52:02;94667.91;;;29.28;36.32
6435;BME280;3250;42.694;23.278;2022-08-01T07:54:28;94704.97;;;29.45;36.03
6435;BME280;3250;42.694;23.278;2022-08-01T07:56:54;94712.16;;;29.20;35.53
6435;BME280;3250;42.694;23.278;2022-08-01T07:59:21;94706.16;;;28.94;36.81
6435;BME280;3250;42.694;23.278;2022-08-01T08:01:51;94710.31;;;28.91;36.78
6435;BME280;3250;42.694;23.278;2022-08-01T08:04:17;94706.47;;;28.92;36.34
6435;BME280;3250;42.694;23.278;2022-08-01T08:06:43;94703.84;;;28.83;35.84
6435;BME280;3250;42.694;23.278;2022-08-01T08:09:10;94709.38;;;29.08;37.93
6435;BME280;3250;42.694;23.278;2022-08-01T08:11:35;94686.19;;;29.19;37.18
6435;BME280;3250;42.694;23.278;2022-08-01T08:14:00;94704.41;;;29.51;36.38
6435;BME280;3250;42.694;23.278;2022-08-01T08:16:26;94699.28;;;29.38;34.27
6435;BME280;3250;42.694;23.278;2022-08-01T08:18:51;94695.78;;;29.37;35.97
6435;BME280;3250;42.694;23.278;2022-08-01T08:21:17;94700.28;;;29.66;36.54
6435;BME280;3250;42.694;23.278;2022-08-01T08:23:42;94693.97;;;29.74;35.12
6435;BME280;3250;42.694;23.278;2022-08-01T08:26:26;94690.09;;;30.20;34.97
6435;BME280;3250;42.694;23.278;2022-08-01T08:28:51;94664.66;;;30.00;35.28
6435;BME280;3250;42.694;23.278;2022-08-01T08:31:17;94700.06;;;30.41;35.29
6435;BME280;3250;42.694;23.278;2022-08-01T08:33:42;94666.78;;;29.95;33.30
6435;BME280;3250;42.694;23.278;2022-08-01T08:36:08;94692.56;;;29.56;35.20
6435;BME280;3250;42.694;23.278;2022-08-01T08:38:33;94694.88;;;29.78;36.82
6435;BME280;3250;42.694;23.278;2022-08-01T08:40:59;94693.53;;;29.84;37.54
6435;BME280;3250;42.694;23.278;2022-08-01T08:43:25;94689.34;;;29.87;36.11
6435;BME280;3250;42.694;23.278;2022-08-01T08:45:51;94679.94;;;29.72;36.45
6435;BME280;3250;42.694;23.278;2022-08-01T08:48:17;94683.41;;;29.60;37.51
6435;BME280;3250;42.694;23.278;2022-08-01T08:50:44;94691.16;;;29.38;36.57
6435;BME280;3250;42.694;23.278;2022-08-01T08:53:13;94670.41;;;28.79;37.49
6435;BME280;3250;42.694;23.278;2022-08-01T08:55:40;94688.50;;;28.58;35.86
6435;BME280;3250;42.694;23.278;2022-08-01T08:58:11;94691.97;;;28.38;38.62
6435;BME280;3250;42.694;23.278;2022-08-01T09:00:39;94667.19;;;28.27;37.90
6435;BME280;3250;42.694;23.278;2022-08-01T09:03:04;94688.28;;;28.42;38.38
6435;BME280;3250;42.694;23.278;2022-08-01T09:05:30;94681.59;;;28.40;38.49
6435;BME280;3250;42.694;23.278;2022-08-01T09:07:55;94673.41;;;28.28;36.65
6435;BME280;3250;42.694;23.278;2022-08-01T09:10:20;94647.97;;;28.03;36.42
6435;BME280;3250;42.694;23.278;2022-08-01T09:13:21;94671.06;;;28.18;36.62
6435;BME280;3250;42.694;23.278;2022-08-01T09:15:52;94642.72;;;28.06;37.40
6435;BME280;3250;42.694;23.278;2022-08-01T09:18:31;94668.78;;;28.20;37.35
6435;BME280;3250;42.694;23.278;2022-08-01T09:21:16;94658.63;;;28.17;36.28
6435;BME280;3250;42.694;23.278;2022-08-01T09:26:12;94655.56;;;28.27;36.97
6435;BME280;3250;42.694;23.278;2022-08-01T09:28:40;94638.38;;;28.23;37.28
6435;BME280;3250;42.694;23.278;2022-08-01T09:31:11;94660.09;;;28.43;36.96
6435;BME280;3250;42.694;23.278;2022-08-01T09:33:56;94659.72;;;28.24;36.73
6435;BME280;3250;42.694;23.278;2022-08-01T09:36:25;94648.03;;;28.32;37.26
6435;BME280;3250;42.694;23.278;2022-08-01T09:38:52;94639.81;;;28.11;37.17
6435;BME280;3250;42.694;23.278;2022-08-01T09:41:17;94666.56;;;28.22;37.36
6435;BME280;3250;42.694;23.278;2022-08-01T09:43:53;94637.78;;;28.17;37.94
6435;BME280;3250;42.694;23.278;2022-08-01T09:46:18;94664.94;;;28.29;37.80
6435;BME280;3250;42.694;23.278;2022-08-01T09:49:01;94661.72;;;28.36;39.21
6435;BME280;3250;42.694;23.278;2022-08-01T09:51:37;94661.63;;;28.53;39.99
6435;BME280;3250;42.694;23.278;2022-08-01T09:54:05;94668.91;;;28.61;38.14
6435;BME280;3250;42.694;23.278;2022-08-01T09:56:41;94664.53;;;28.69;35.98
6435;BME280;3250;42.694;23.278;2022-08-01T09:59:08;94657.63;;;28.80;36.75
6435;BME280;3250;42.694;23.278;2022-08-01T10:01:49;94660.03;;;28.73;35.83
6435;BME280;3250;42.694;23.278;2022-08-01T10:04:20;94636.44;;;28.52;37.60
6435;BME280;3250;42.694;23.278;2022-08-01T10:06:48;94659.75;;;28.66;37.82
6435;BME280;3250;42.694;23.278;2022-08-01T10:09:30;94659.44;;;28.67;37.86
6435;BME280;3250;42.694;23.278;2022-08-01T10:11:56;94662.41;;;28.74;37.93
6435;BME280;3250;42.694;23.278;2022-08-01T10:14:24;94656.72;;;28.67;36.84
6435;BME280;3250;42.694;23.278;2022-08-01T10:16:52;94673.94;;;28.71;36.78
6435;BME280;3250;42.694;23.278;2022-08-01T10:19:21;94662.94;;;28.68;36.17
6435;BME280;3250;42.694;23.278;2022-08-01T10:21:49;94645.75;;;28.64;36.34
6435;BME280;3250;42.694;23.278;2022-08-01T10:24:18;94629.44;;;28.51;35.81
6435;BME280;3250;42.694;23.278;2022-08-01T10:26:47;94639.59;;;28.54;38.24
6435;BME280;3250;42.694;23.278;2022-08-01T10:29:15;94636.56;;;28.56;38.08
6435;BME280;3250;42.694;23.278;2022-08-01T10:31:43;94640.25;;;28.51;37.27
6435;BME280;3250;42.694;23.278;2022-08-01T10:34:09;94639.66;;;28.46;38.68
6435;BME280;3250;42.694;23.278;2022-08-01T10:36:36;94635.22;;;28.41;37.61
6435;BME280;3250;42.694;23.278;2022-08-01T10:39:05;94619.69;;;28.30;39.21
6435;BME280;3250;42.694;23.278;2022-08-01T10:41:33;94636.03;;;28.42;39.73
6435;BME280;3250;42.694;23.278;2022-08-01T10:44:01;94615.00;;;28.39;37.88
6435;BME280;3250;42.694;23.278;2022-08-01T10:46:30;94618.34;;;28.44;37.41
6435;BME280;3250;42.694;23.278;2022-08-01T10:49:04;94607.19;;;28.37;35.92
6435;BME280;3250;42.694;23.278;2022-08-01T10:51:35;94607.09;;;28.34;36.56
6435;BME280;3250;42.694;23.278;2022-08-01T10:54:07;94620.94;;;28.32;37.80
6435;BME280;3250;42.694;23.278;2022-08-01T10:56:47;94615.06;;;28.30;38.38
6435;BME280;3250;42.694;23.278;2022-08-01T10:59:25;94608.56;;;28.23;39.10
6435;BME280;3250;42.694;23.278;2022-08-01T11:04:51;94616.31;;;28.33;37.48
6435;BME280;3250;42.694;23.278;2022-08-01T11:07:24;94611.22;;;28.31;38.93
6435;BME280;3250;42.694;23.278;2022-08-01T11:10:32;94615.72;;;28.27;37.29
6435;BME280;3250;42.694;23.278;2022-08-01T11:13:00;94595.56;;;28.16;38.92
6435;BME280;3250;42.694;23.278;2022-08-01T11:15:28;94586.47;;;28.12;38.34
6435;BME280;3250;42.694;23.278;2022-08-01T11:17:55;94589.91;;;28.00;38.43
6435;BME280;3250;42.694;23.278;2022-08-01T11:33:50;94616.25;;;28.12;38.81
6435;BME280;3250;42.694;23.278;2022-08-01T11:38:42;94605.91;;;28.14;39.43
6435;BME280;3250;42.694;23.278;2022-08-01T11:41:29;94581.09;;;28.03;38.13
6435;BME280;3250;42.694;23.278;2022-08-01T11:44:05;94608.41;;;28.28;37.88
6435;BME280;3250;42.694;23.278;2022-08-01T11:54:37;94587.13;;;28.18;38.59
6435;BME280;3250;42.694;23.278;2022-08-01T11:57:14;94604.84;;;28.36;37.40
6435;BME280;3250;42.694;23.278;2022-08-01T11:59:41;94608.00;;;28.38;38.24
6435;BME280;3250;42.694;23.278;2022-08-01T12:02:26;94600.22;;;28.36;38.40
6435;BME280;3250;42.694;23.278;2022-08-01T12:04:56;94601.19;;;28.32;38.36
6435;BME280;3250;42.694;23.278;2022-08-01T12:07:23;94592.28;;;28.31;38.71
6435;BME280;3250;42.694;23.278;2022-08-01T12:10:00;94592.41;;;28.35;39.04
6435;BME280;3250;42.694;23.278;2022-08-01T12:12:26;94574.56;;;28.04;38.69
6435;BME280;3250;42.694;23.278;2022-08-01T12:15:00;94578.31;;;28.21;39.48
6435;BME280;3250;42.694;23.278;2022-08-01T12:17:42;94560.06;;;28.09;38.09
6435;BME280;3250;42.694;23.278;2022-08-01T12:20:14;94594.88;;;28.28;38.66
6435;BME280;3250;42.694;23.278;2022-08-01T12:22:40;94591.31;;;28.36;38.35
6435;BME280;3250;42.694;23.278;2022-08-01T12:25:13;94588.38;;;28.41;38.60
6435;BME280;3250;42.694;23.278;2022-08-01T12:27:41;94595.88;;;28.44;38.05
6435;BME280;3250;42.694;23.278;2022-08-01T12:30:12;94591.69;;;28.46;38.64
6435;BME280;3250;42.694;23.278;2022-08-01T12:32:40;94594.75;;;28.45;38.12
6435;BME280;3250;42.694;23.278;2022-08-01T12:35:10;94594.38;;;28.46;38.11
6435;BME280;3250;42.694;23.278;2022-08-01T12:37:40;94597.63;;;28.40;37.80
6435;BME280;3250;42.694;23.278;2022-08-01T12:42:42;94593.94;;;28.44;38.51
6435;BME280;3250;42.694;23.278;2022-08-01T12:45:09;94577.34;;;28.46;38.11
6435;BME280;3250;42.694;23.278;2022-08-01T12:47:37;94585.81;;;28.24;37.06
6435;BME280;3250;42.694;23.278;2022-08-01T12:50:06;94596.97;;;28.13;36.79
6435;BME280;3250;42.694;23.278;2022-08-01T12:52:33;94594.44;;;27.79;37.85
6435;BME280;3250;42.694;23.278;2022-08-01T12:55:08;94585.28;;;27.63;37.56
6435;BME280;3250;42.694;23.278;2022-08-01T12:57:36;94586.44;;;27.45;39.63
6435;BME280;3250;42.694;23.278;2022-08-01T13:00:06;94587.84;;;27.51;39.92
6435;BME280;3250;42.694;23.278;2022-08-01T13:02:33;94567.00;;;27.60;39.65
6435;BME280;3250;42.694;23.278;2022-08-01T13:04:59;94565.78;;;27.78;39.56
6435;BME280;3250;42.694;23.278;2022-08-01T13:07:57;94539.22;;;27.80;39.52
6435;BME280;3250;42.694;23.278;2022-08-01T13:10:30;94575.03;;;28.06;39.70
6435;BME280;3250;42.694;23.278;2022-08-01T13:12:58;94581.97;;;28.25;39.38
6435;BME280;3250;42.694;23.278;2022-08-01T13:15:31;94571.72;;;28.30;38.56
6435;BME280;3250;42.694;23.278;2022-08-01T13:17:59;94570.66;;;28.23;38.46
6435;BME280;3250;42.694;23.278;2022-08-01T13:20:32;94573.84;;;28.25;38.72
6435;BME280;3250;42.694;23.278;2022-08-01T13:23:18;94570.50;;;28.28;39.01
6435;BME280;3250;42.694;23.278;2022-08-01T13:25:48;94559.19;;;28.26;38.90
6435;BME280;3250;42.694;23.278;2022-08-01T13:28:33;94567.25;;;28.05;38.50
6435;BME280;3250;42.694;23.278;2022-08-01T13:31:05;94569.31;;;28.08;39.23
6435;BME280;3250;42.694;23.278;2022-08-01T13:33:47;94532.59;;;27.98;38.55
6435;BME280;3250;42.694;23.278;2022-08-01T13:36:14;94570.50;;;28.28;38.87
6435;BME280;3250;42.694;23.278;2022-08-01T13:38:42;94534.69;;;28.13;38.53
6435;BME280;3250;42.694;23.278;2022-08-01T13:41:26;94554.75;;;28.21;38.28
6435;BME280;3250;42.694;23.278;2022-08-01T13:43:52;94558.66;;;28.03;38.58
6435;BME280;3250;42.694;23.278;2022-08-01T13:46:18;94561.84;;;28.05;39.73
6435;BME280;3250;42.694;23.278;2022-08-01T13:48:44;94557.03;;;28.10;39.30
6435;BME280;3250;42.694;23.278;2022-08-01T13:51:09;94531.59;;;28.03;38.59
6435;BME280;3250;42.694;23.278;2022-08-01T13:53:35;94532.84;;;28.05;38.77
6435;BME280;3250;42.694;23.278;2022-08-01T13:56:01;94549.88;;;28.06;39.51
6435;BME280;3250;42.694;23.278;2022-08-01T13:58:26;94549.09;;;28.05;39.04